Time;durP1;ratioP1;P1;durP2;ratioP2;P2;SDS_P1;SDS_P2;PMS_P1;PMS_P2;Temp;Humidity;BMP_temperature;BMP_pressure;BME280_temperature;BME280_humidity;BME280_pressure;Samples;Min_cycle;Max_cycle;Signal;HPM_P1;HPM_P2
2023/08/05 00:01:18;;;;;;;4.65;3.65;;;;;;;17.61;74.11;101610.84;5043524;28;20025;-79
2023/08/05 00:03:43;;;;;;;6.50;4.05;;;;;;;17.61;74.24;101605.50;5046781;28;20090;-80
2023/08/05 00:06:10;;;;;;;7.00;4.10;;;;;;;17.69;72.99;101603.25;5050858;28;20028;-80
2023/08/05 00:08:35;;;;;;;5.47;3.97;;;;;;;17.71;73.44;101603.16;5042269;28;20052;-79
2023/08/05 00:11:01;;;;;;;4.88;3.78;;;;;;;17.71;74.42;101597.78;5041663;28;20065;-80
2023/08/05 00:13:26;;;;;;;5.10;4.07;;;;;;;17.69;73.91;101597.91;5044041;28;20464;-80
2023/08/05 00:15:52;;;;;;;6.90;4.50;;;;;;;17.65;74.28;101603.50;5040435;28;20103;-80
2023/08/05 00:18:17;;;;;;;5.45;4.50;;;;;;;17.63;74.64;101595.59;5039827;28;20035;-80
2023/08/05 00:20:42;;;;;;;6.68;4.18;;;;;;;17.55;74.29;101587.13;5044973;28;20020;-80
2023/08/05 00:23:07;;;;;;;8.18;4.35;;;;;;;17.36;75.19;101590.00;5040380;28;20034;-79
2023/08/05 00:25:33;;;;;;;7.20;4.13;;;;;;;17.40;75.19;101591.56;5042485;28;20031;-79
2023/08/05 00:27:58;;;;;;;7.38;4.40;;;;;;;17.45;74.77;101593.97;5043364;28;20387;-79
2023/08/05 00:30:23;;;;;;;5.63;4.25;;;;;;;17.48;74.98;101591.09;5050350;28;20029;-79
2023/08/05 00:32:49;;;;;;;9.68;4.82;;;;;;;17.47;75.47;101586.72;5037425;28;20021;-80
2023/08/05 00:35:14;;;;;;;6.30;4.30;;;;;;;17.45;75.05;101591.28;5040829;28;20033;-79
2023/08/05 00:37:39;;;;;;;4.57;3.83;;;;;;;17.40;75.54;101580.00;5045398;28;20039;-79
2023/08/05 00:40:05;;;;;;;5.32;3.90;;;;;;;17.46;75.05;101582.31;5040499;28;20052;-79
2023/08/05 00:42:30;;;;;;;5.28;4.05;;;;;;;17.51;75.38;101580.25;5041912;28;20041;-80
2023/08/05 00:44:56;;;;;;;5.25;4.07;;;;;;;17.52;75.30;101584.63;5036039;28;20114;-79
2023/08/05 00:47:21;;;;;;;6.70;4.28;;;;;;;17.54;75.98;101580.94;5043538;28;20040;-79
2023/08/05 00:49:51;;;;;;;7.88;4.53;;;;;;;17.54;75.22;101574.72;5034388;28;20381;-79
2023/08/05 00:52:18;;;;;;;6.53;4.57;;;;;;;17.48;75.35;101577.72;5041792;28;20199;-79
2023/08/05 00:54:44;;;;;;;6.20;4.35;;;;;;;17.38;75.54;101563.16;5053368;28;20057;-79
2023/08/05 00:57:11;;;;;;;13.27;4.88;;;;;;;17.22;75.83;101565.88;5042913;28;20509;-80
2023/08/05 00:59:37;;;;;;;5.30;4.78;;;;;;;17.13;76.39;101556.56;5051857;28;20074;-79
2023/08/05 01:02:02;;;;;;;5.85;4.53;;;;;;;17.04;76.56;101562.41;5054764;28;20028;-79
2023/08/05 01:04:28;;;;;;;5.00;4.50;;;;;;;16.93;76.91;101551.47;5049968;28;20043;-79
2023/08/05 01:06:54;;;;;;;6.53;4.63;;;;;;;16.93;78.31;101554.13;5042629;28;20084;-79
2023/08/05 01:09:20;;;;;;;6.95;4.22;;;;;;;17.00;78.11;101548.34;5032539;28;20545;-79
2023/08/05 01:11:46;;;;;;;7.60;4.45;;;;;;;17.06;77.45;101555.16;5044386;28;20074;-79
2023/08/05 01:14:11;;;;;;;6.18;4.95;;;;;;;17.06;76.87;101547.13;5044404;28;20499;-79
2023/08/05 01:16:36;;;;;;;6.70;4.80;;;;;;;17.08;77.71;101545.25;5047124;28;20034;-79
2023/08/05 01:19:04;;;;;;;5.78;4.53;;;;;;;16.98;77.34;101550.25;5036736;28;20388;-79
2023/08/05 01:21:49;;;;;;;6.43;4.70;;;;;;;16.90;77.67;101543.63;5047180;28;20028;-80
2023/08/05 01:24:23;;;;;;;6.38;4.30;;;;;;;16.79;77.68;101536.22;5040440;28;20048;-79
2023/08/05 01:26:49;;;;;;;6.75;4.68;;;;;;;16.82;78.57;101541.34;5039774;28;20493;-79
2023/08/05 01:29:14;;;;;;;9.68;5.00;;;;;;;16.88;78.50;101545.50;5037318;28;20027;-79
2023/08/05 01:31:43;;;;;;;7.85;5.00;;;;;;;16.91;77.34;101540.00;5038315;28;20020;-79
2023/08/05 01:34:09;;;;;;;8.80;4.70;;;;;;;16.70;77.90;101534.88;5045636;28;20499;-79
2023/08/05 01:36:34;;;;;;;7.53;5.05;;;;;;;16.65;78.22;101541.41;5041432;28;20029;-79
2023/08/05 01:38:59;;;;;;;7.15;4.63;;;;;;;16.66;77.72;101538.66;5039301;28;20024;-79
2023/08/05 01:41:25;;;;;;;7.20;5.32;;;;;;;16.66;78.14;101543.13;5034028;28;20045;-79
2023/08/05 01:43:50;;;;;;;6.75;4.40;;;;;;;16.68;78.45;101536.75;5035928;28;20053;-80
2023/08/05 01:46:15;;;;;;;6.97;4.88;;;;;;;16.75;77.79;101540.84;5041727;28;20051;-79
2023/08/05 01:48:40;;;;;;;8.70;5.07;;;;;;;16.74;77.80;101544.47;5043449;28;20042;-80
2023/08/05 01:51:06;;;;;;;7.63;5.32;;;;;;;16.73;78.34;101531.19;5036009;28;20025;-79
2023/08/05 01:53:31;;;;;;;7.90;4.93;;;;;;;16.63;77.14;101541.47;5034488;28;20029;-79
2023/08/05 01:55:56;;;;;;;9.57;5.65;;;;;;;16.46;78.37;101545.06;5048409;28;20025;-80
2023/08/05 01:58:21;;;;;;;9.55;4.78;;;;;;;16.47;78.81;101545.94;5044350;28;20115;-79
2023/08/05 02:00:51;;;;;;;7.30;4.97;;;;;;;16.48;78.13;101534.28;5044527;28;20948;-79
2023/08/05 02:03:16;;;;;;;11.88;5.35;;;;;;;16.44;78.91;101530.06;5048640;28;20032;-79
2023/08/05 02:05:41;;;;;;;9.45;5.05;;;;;;;16.44;78.29;101530.94;5039392;28;20047;-80
2023/08/05 02:08:06;;;;;;;7.65;5.30;;;;;;;16.58;78.76;101535.53;5044992;28;20028;-79
2023/08/05 02:10:32;;;;;;;8.98;5.47;;;;;;;16.59;78.45;101535.41;5050047;28;20017;-80
2023/08/05 02:12:57;;;;;;;11.07;5.18;;;;;;;16.58;77.80;101536.38;5040435;28;20037;-80
2023/08/05 02:15:22;;;;;;;5.68;4.53;;;;;;;16.55;77.76;101539.22;5051008;28;20117;-79
2023/08/05 02:17:48;;;;;;;8.02;5.10;;;;;;;16.48;78.32;101539.63;5048516;28;20029;-79
2023/08/05 02:20:14;;;;;;;11.07;4.80;;;;;;;16.38;78.64;101546.41;5040907;28;20435;-79
2023/08/05 02:22:40;;;;;;;8.40;5.40;;;;;;;16.40;79.36;101539.19;5051530;28;20404;-80
2023/08/05 02:25:05;;;;;;;9.75;5.50;;;;;;;16.40;79.00;101545.38;5039504;28;20021;-80
2023/08/05 02:27:30;;;;;;;6.30;5.50;;;;;;;16.41;79.00;101540.88;5044484;28;20642;-79
2023/08/05 02:29:56;;;;;;;9.32;6.05;;;;;;;16.39;79.01;101542.78;5038901;28;20063;-80
2023/08/05 02:32:21;;;;;;;7.55;5.80;;;;;;;16.39;78.58;101540.97;5049940;28;20526;-80
2023/08/05 02:34:46;;;;;;;7.93;5.82;;;;;;;16.35;78.50;101538.56;5046039;28;20053;-79
2023/08/05 02:37:12;;;;;;;11.82;5.57;;;;;;;16.26;78.93;101531.91;5043929;28;20037;-80
2023/08/05 02:39:40;;;;;;;7.40;5.45;;;;;;;16.15;79.21;101519.13;5043586;28;20026;-79
2023/08/05 02:42:05;;;;;;;9.55;5.63;;;;;;;16.16;79.56;101518.19;5038067;28;20025;-79
2023/08/05 02:44:31;;;;;;;9.88;6.53;;;;;;;16.19;79.26;101514.50;5036492;28;20049;-79
2023/08/05 02:46:56;;;;;;;7.50;5.97;;;;;;;16.14;79.44;101512.09;5048850;28;20552;-79
2023/08/05 02:49:21;;;;;;;8.77;5.65;;;;;;;16.05;79.33;101513.41;5040981;28;20067;-79
2023/08/05 02:51:46;;;;;;;7.78;6.10;;;;;;;15.98;79.91;101517.34;5028762;28;20107;-79
2023/08/05 02:54:13;;;;;;;11.38;5.80;;;;;;;15.97;80.34;101514.75;5050801;28;20075;-79
2023/08/05 02:56:39;;;;;;;14.32;6.47;;;;;;;15.97;79.97;101514.75;5051276;28;20064;-80
2023/08/05 02:59:05;;;;;;;8.13;6.43;;;;;;;16.02;80.52;101521.56;5040968;28;20279;-80
2023/08/05 03:01:30;;;;;;;8.60;6.07;;;;;;;16.06;79.87;101509.81;5049222;28;20025;-80
2023/08/05 03:03:56;;;;;;;9.73;6.28;;;;;;;16.13;80.14;101509.47;5056536;28;20040;-79
2023/08/05 03:06:21;;;;;;;8.35;6.00;;;;;;;16.15;79.73;101508.47;5043656;28;20032;-80
2023/08/05 03:08:46;;;;;;;8.95;6.45;;;;;;;16.14;79.54;101506.75;5049403;28;20029;-80
2023/08/05 03:11:12;;;;;;;7.80;5.97;;;;;;;16.15;78.67;101503.13;5053961;28;20028;-80
2023/08/05 03:13:37;;;;;;;12.63;6.65;;;;;;;16.02;79.02;101505.56;5043369;28;20025;-79
2023/08/05 03:16:13;;;;;;;11.73;6.75;;;;;;;15.82;79.43;101495.09;5045906;28;20169;-79
2023/08/05 03:18:38;;;;;;;10.43;6.78;;;;;;;15.73;80.11;101496.41;5041538;28;20047;-79
2023/08/05 03:21:03;;;;;;;10.40;6.75;;;;;;;15.81;81.04;101490.72;5040500;28;20021;-79
2023/08/05 03:23:29;;;;;;;9.27;6.57;;;;;;;15.88;80.14;101497.44;5046088;28;20371;-80
2023/08/05 03:25:54;;;;;;;9.98;6.00;;;;;;;15.93;79.05;101484.72;5040914;28;20033;-79
2023/08/05 03:28:19;;;;;;;9.70;6.25;;;;;;;15.97;78.58;101485.44;5048084;28;20476;-79
2023/08/05 03:30:45;;;;;;;7.63;6.07;;;;;;;15.97;78.74;101488.09;5039243;28;20070;-79
2023/08/05 03:33:10;;;;;;;10.40;6.07;;;;;;;15.99;79.10;101481.75;5048489;28;20071;-79
2023/08/05 03:35:35;;;;;;;9.80;6.95;;;;;;;15.94;79.11;101483.75;5042592;28;20103;-79
2023/08/05 03:38:02;;;;;;;11.45;6.15;;;;;;;15.92;78.84;101487.47;5038496;28;20029;-79
2023/08/05 03:40:27;;;;;;;7.03;6.07;;;;;;;15.84;78.54;101473.66;5056532;28;20033;-79
2023/08/05 03:42:53;;;;;;;10.80;6.57;;;;;;;15.83;79.45;101475.47;5051837;28;20120;-80
2023/08/05 03:45:18;;;;;;;10.27;6.90;;;;;;;15.81;79.99;101472.03;5050602;28;20072;-80
2023/08/05 03:47:43;;;;;;;7.88;6.53;;;;;;;15.71;79.35;101470.75;5045729;28;20035;-80
2023/08/05 03:50:09;;;;;;;8.23;6.95;;;;;;;15.54;79.82;101461.81;5050088;28;20111;-80
2023/08/05 03:52:34;;;;;;;7.72;6.25;;;;;;;15.52;79.90;101460.16;5047715;28;20044;-80
2023/08/05 03:55:00;;;;;;;8.90;6.97;;;;;;;15.58;79.56;101451.88;5052390;28;20033;-80
2023/08/05 03:57:25;;;;;;;10.63;7.07;;;;;;;15.55;79.48;101438.69;5051035;28;20039;-80
2023/08/05 03:59:50;;;;;;;9.75;7.18;;;;;;;15.56;80.40;101443.06;5046550;28;20024;-80
2023/08/05 04:02:16;;;;;;;10.20;6.93;;;;;;;15.55;80.87;101442.22;5054079;28;20027;-80
2023/08/05 04:04:44;;;;;;;11.02;6.63;;;;;;;15.44;80.50;101441.91;5050074;28;20098;-80
2023/08/05 04:07:09;;;;;;;7.68;6.53;;;;;;;15.39;81.21;101440.38;5057841;28;20501;-80
2023/08/05 04:09:36;;;;;;;9.05;6.30;;;;;;;15.32;80.85;101435.38;5042201;28;20103;-80
2023/08/05 04:12:04;;;;;;;8.82;6.63;;;;;;;15.31;81.71;101433.66;5052286;28;20124;-80
2023/08/05 04:14:30;;;;;;;11.85;6.43;;;;;;;15.37;81.60;101429.81;5034901;28;20026;-80
2023/08/05 04:16:56;;;;;;;8.18;6.55;;;;;;;15.47;81.78;101440.88;5040607;28;20361;-80
2023/08/05 04:19:25;;;;;;;8.32;6.85;;;;;;;15.54;81.74;101444.97;5042437;28;20033;-80
2023/08/05 04:21:52;;;;;;;9.45;7.53;;;;;;;15.60;81.09;101446.44;5044822;28;20107;-80
2023/08/05 04:24:22;;;;;;;10.07;6.95;;;;;;;15.64;81.09;101445.38;5055528;28;20419;-79
2023/08/05 04:26:47;;;;;;;9.93;7.20;;;;;;;15.64;80.84;101432.91;5038893;28;20025;-79
2023/08/05 04:29:15;;;;;;;11.88;7.20;;;;;;;15.62;79.95;101416.13;5043324;28;20518;-79
2023/08/05 04:31:42;;;;;;;7.95;6.18;;;;;;;15.59;80.01;101410.94;5039096;28;20025;-80
2023/08/05 04:34:07;;;;;;;8.75;6.75;;;;;;;15.66;80.08;101414.16;5049343;28;20029;-80
2023/08/05 04:36:32;;;;;;;9.52;6.82;;;;;;;15.62;80.21;101405.47;5045707;28;20032;-80
2023/08/05 04:39:02;;;;;;;9.20;6.95;;;;;;;15.68;80.02;101394.50;5041027;28;20502;-80
2023/08/05 04:41:27;;;;;;;8.93;6.78;;;;;;;15.72;79.81;101392.53;5045812;28;20017;-80
2023/08/05 04:43:52;;;;;;;7.05;6.25;;;;;;;15.78;79.72;101390.41;5043104;28;20040;-80
2023/08/05 04:46:17;;;;;;;10.27;7.43;;;;;;;15.83;79.51;101390.16;5043652;28;20028;-80
2023/08/05 04:48:43;;;;;;;11.68;7.20;;;;;;;15.85;80.04;101390.06;5043485;28;20037;-79
2023/08/05 04:51:08;;;;;;;11.13;7.00;;;;;;;15.81;80.23;101386.72;5042613;28;20021;-79
2023/08/05 04:53:33;;;;;;;10.38;7.20;;;;;;;15.81;79.60;101387.56;5049710;28;20357;-80
2023/08/05 04:55:58;;;;;;;10.32;7.60;;;;;;;15.87;79.06;101391.72;5040924;28;20032;-79
2023/08/05 04:58:24;;;;;;;10.27;7.22;;;;;;;15.87;79.14;101386.38;5044893;28;20079;-80
2023/08/05 05:00:49;;;;;;;10.85;7.32;;;;;;;15.94;79.22;101386.91;5046547;28;20412;-80
2023/08/05 05:03:14;;;;;;;12.38;8.05;;;;;;;15.95;79.05;101385.97;5044050;28;20032;-79
2023/08/05 05:05:42;;;;;;;12.98;8.23;;;;;;;15.91;80.17;101390.63;5050974;28;20024;-80
2023/08/05 05:08:07;;;;;;;10.85;7.43;;;;;;;15.88;80.46;101392.56;5054113;28;20069;-79
2023/08/05 05:10:33;;;;;;;11.13;8.00;;;;;;;15.85;80.93;101385.59;5043261;28;20116;-80
2023/08/05 05:12:58;;;;;;;12.25;7.80;;;;;;;15.91;80.84;101393.28;5051879;28;20025;-80
2023/08/05 05:15:24;;;;;;;12.07;7.80;;;;;;;15.95;80.81;101384.16;5043649;28;20048;-79
2023/08/05 05:17:50;;;;;;;12.38;7.85;;;;;;;16.12;80.44;101379.72;5043142;28;20385;-79
2023/08/05 05:20:16;;;;;;;11.45;7.82;;;;;;;16.17;80.65;101375.84;5041219;28;20032;-79
2023/08/05 05:22:41;;;;;;;13.70;9.65;;;;;;;16.22;80.07;101376.44;5046009;28;20029;-79
2023/08/05 05:25:07;;;;;;;10.75;7.28;;;;;;;16.27;79.71;101374.41;5049071;28;20404;-79
2023/08/05 05:27:32;;;;;;;13.93;8.35;;;;;;;16.28;79.65;101378.81;5047942;28;20107;-79
2023/08/05 05:29:57;;;;;;;13.35;8.48;;;;;;;16.31;79.79;101386.63;5028151;28;20028;-79
2023/08/05 05:32:22;;;;;;;10.85;8.00;;;;;;;16.37;79.64;101381.88;5052572;28;20029;-79
2023/08/05 05:34:48;;;;;;;15.55;8.15;;;;;;;16.30;79.40;101374.22;5051658;28;20028;-79
2023/08/05 05:37:13;;;;;;;10.50;8.05;;;;;;;16.31;79.53;101365.25;5033744;28;20029;-79
2023/08/05 05:39:40;;;;;;;11.88;8.60;;;;;;;16.41;78.99;101364.75;5040661;28;20016;-79
2023/08/05 05:42:05;;;;;;;12.63;8.52;;;;;;;16.43;79.24;101373.56;5042520;28;20064;-80
2023/08/05 05:44:30;;;;;;;13.98;8.77;;;;;;;16.41;80.04;101365.59;5033537;28;20073;-80
2023/08/05 05:46:56;;;;;;;12.50;8.27;;;;;;;16.48;78.86;101367.00;5031100;28;20079;-79
2023/08/05 05:49:21;;;;;;;13.05;9.02;;;;;;;16.40;79.56;101368.38;5032056;28;20499;-79
2023/08/05 05:51:47;;;;;;;12.55;8.90;;;;;;;16.29;79.91;101366.31;5048458;28;20048;-79
2023/08/05 05:54:13;;;;;;;13.13;8.70;;;;;;;16.46;79.93;101368.91;5060079;28;20475;-79
2023/08/05 05:56:39;;;;;;;10.80;8.05;;;;;;;16.69;79.36;101370.25;5046298;28;20033;-79
2023/08/05 05:59:04;;;;;;;15.27;9.00;;;;;;;16.71;79.29;101363.03;5052729;28;20037;-79
2023/08/05 06:01:29;;;;;;;11.13;8.75;;;;;;;16.83;79.16;101370.38;5044696;28;20531;-79
2023/08/05 06:03:55;;;;;;;12.80;9.18;;;;;;;17.04;79.13;101364.72;5055006;28;20112;-79
2023/08/05 06:06:20;;;;;;;14.63;9.88;;;;;;;17.10;78.34;101367.00;5046375;28;20033;-79
2023/08/05 06:08:45;;;;;;;13.32;8.77;;;;;;;17.19;78.58;101363.81;5055937;28;20392;-80
2023/08/05 06:11:11;;;;;;;16.50;8.88;;;;;;;17.19;78.51;101363.81;5044338;28;20070;-79
2023/08/05 06:13:36;;;;;;;12.73;8.73;;;;;;;17.25;77.68;101363.47;5066979;28;20028;-79
2023/08/05 06:16:02;;;;;;;12.13;8.95;;;;;;;17.32;77.94;101359.44;5043405;28;20043;-79
2023/08/05 06:18:27;;;;;;;13.80;8.90;;;;;;;17.32;77.48;101355.91;5044808;28;20029;-80
2023/08/05 06:20:52;;;;;;;15.95;7.82;;;;;;;17.37;77.04;101359.16;5042823;28;20056;-80
2023/08/05 06:23:18;;;;;;;12.18;8.57;;;;;;;17.40;77.89;101364.34;5069608;28;20078;-80
2023/08/05 06:25:45;;;;;;;14.27;8.43;;;;;;;17.41;77.60;101354.50;5049636;28;20124;-79
2023/08/05 06:28:10;;;;;;;11.27;7.68;;;;;;;17.59;77.43;101346.22;5062873;28;20024;-79
2023/08/05 06:30:36;;;;;;;12.32;8.00;;;;;;;17.71;77.03;101341.91;5043252;28;20037;-80
2023/08/05 06:33:01;;;;;;;12.32;8.27;;;;;;;17.84;76.05;101342.06;5044023;28;20036;-79
2023/08/05 06:35:26;;;;;;;11.35;8.30;;;;;;;17.83;76.81;101351.91;5052759;28;20040;-80
2023/08/05 06:37:52;;;;;;;13.05;8.18;;;;;;;18.01;76.64;101344.53;5047820;28;20255;-79
2023/08/05 06:40:17;;;;;;;10.40;8.70;;;;;;;18.10;75.80;101343.94;5046601;28;20519;-80
2023/08/05 06:42:43;;;;;;;11.98;8.38;;;;;;;18.22;74.98;101342.28;5057775;28;20024;-80
2023/08/05 06:45:08;;;;;;;12.75;8.10;;;;;;;18.28;75.08;101346.41;5043686;28;20399;-79
2023/08/05 06:47:34;;;;;;;13.20;8.40;;;;;;;18.27;74.21;101347.34;5043151;28;20032;-79
2023/08/05 06:50:01;;;;;;;12.73;7.80;;;;;;;18.35;74.05;101350.41;5047576;28;20025;-79
2023/08/05 06:52:27;;;;;;;11.38;7.70;;;;;;;18.48;73.21;101347.78;5037832;28;20037;-79
2023/08/05 06:54:52;;;;;;;11.35;6.97;;;;;;;18.43;74.36;101352.59;5038191;28;20036;-79
2023/08/05 06:57:18;;;;;;;10.82;7.03;;;;;;;18.35;73.89;101332.50;5044566;28;20075;-79
2023/08/05 06:59:43;;;;;;;9.07;6.68;;;;;;;18.43;73.46;101333.84;5039940;28;20021;-79
2023/08/05 07:02:08;;;;;;;11.30;6.35;;;;;;;18.49;73.54;101326.25;5044776;28;20033;-79
2023/08/05 07:04:33;;;;;;;11.80;6.25;;;;;;;18.57;72.02;101333.81;5037680;28;20048;-79
2023/08/05 07:06:59;;;;;;;8.30;6.72;;;;;;;18.67;71.48;101334.91;5039370;28;20043;-79
2023/08/05 07:09:24;;;;;;;10.07;6.03;;;;;;;18.81;72.56;101323.31;5029731;28;20499;-79
2023/08/05 07:11:49;;;;;;;7.95;5.97;;;;;;;18.96;70.85;101308.03;5033997;28;20108;-79
2023/08/05 07:14:15;;;;;;;7.15;5.22;;;;;;;19.21;68.52;101307.19;5030513;28;20040;-79
2023/08/05 07:16:40;;;;;;;6.82;5.13;;;;;;;19.26;68.99;101302.41;5034191;28;20029;-79
2023/08/05 07:19:05;;;;;;;8.88;4.97;;;;;;;19.15;69.72;101307.63;5034865;28;20752;-79
2023/08/05 07:21:30;;;;;;;5.80;4.25;;;;;;;19.15;68.02;101313.84;5043431;28;20082;-79
2023/08/05 07:23:56;;;;;;;6.22;4.40;;;;;;;19.14;67.71;101303.22;5037711;28;20029;-80
2023/08/05 07:26:21;;;;;;;5.75;4.20;;;;;;;19.17;67.88;101306.56;5045868;28;20398;-80
2023/08/05 07:28:48;;;;;;;6.63;4.90;;;;;;;19.37;68.13;101313.22;5051838;28;20040;-79
2023/08/05 07:31:15;;;;;;;5.80;4.32;;;;;;;19.55;68.11;101305.72;5030691;28;20033;-79
2023/08/05 07:33:42;;;;;;;7.40;4.03;;;;;;;19.70;65.89;101307.34;5048891;28;20029;-80
2023/08/05 07:36:11;;;;;;;4.63;4.15;;;;;;;19.78;66.18;101313.03;5039587;28;20028;-80
2023/08/05 07:38:40;;;;;;;4.22;3.67;;;;;;;19.95;65.39;101310.94;5041782;28;20108;-79
2023/08/05 07:41:06;;;;;;;3.90;3.55;;;;;;;19.96;65.36;101304.59;5040201;28;20608;-80
2023/08/05 07:43:35;;;;;;;5.05;3.65;;;;;;;20.11;65.50;101295.47;5043531;28;20124;-79
2023/08/05 07:46:01;;;;;;;5.00;3.17;;;;;;;20.15;63.21;101306.84;5040171;28;20144;-80
2023/08/05 07:48:27;;;;;;;5.40;3.80;;;;;;;20.05;64.28;101304.81;5043922;28;20114;-80
2023/08/05 07:50:52;;;;;;;6.25;3.22;;;;;;;20.08;63.72;101298.34;5048614;28;20028;-80
2023/08/05 07:53:20;;;;;;;4.10;3.60;;;;;;;20.26;63.76;101277.38;5040049;28;20499;-80
2023/08/05 07:55:46;;;;;;;5.10;3.58;;;;;;;20.64;62.40;101288.81;5039989;28;20029;-80
2023/08/05 07:58:11;;;;;;;5.38;4.00;;;;;;;20.59;62.39;101291.00;5034297;28;20032;-80
2023/08/05 08:00:39;;;;;;;4.50;3.92;;;;;;;20.46;61.83;101279.41;5031770;28;20056;-80
2023/08/05 08:03:05;;;;;;;4.43;3.38;;;;;;;20.63;62.49;101275.50;5046123;28;20538;-80
2023/08/05 08:05:30;;;;;;;5.95;3.70;;;;;;;20.82;60.52;101269.59;5041390;28;20020;-82
2023/08/05 08:07:56;;;;;;;7.03;4.47;;;;;;;20.73;61.20;101267.59;5034488;28;20033;-81
2023/08/05 08:10:24;;;;;;;6.38;3.42;;;;;;;20.91;63.34;101265.34;5045534;28;20514;-82
2023/08/05 08:12:51;;;;;;;4.68;3.60;;;;;;;21.18;59.62;101265.03;5042189;28;20148;-81
2023/08/05 08:15:16;;;;;;;5.93;3.60;;;;;;;21.41;61.59;101257.91;5040737;28;20032;-82
2023/08/05 08:17:41;;;;;;;5.90;3.88;;;;;;;21.98;59.46;101259.56;5037999;28;20035;-80
2023/08/05 08:20:07;;;;;;;5.88;4.25;;;;;;;22.21;58.50;101250.50;5046168;28;20031;-80
2023/08/05 08:22:32;;;;;;;4.75;4.28;;;;;;;22.25;59.00;101254.66;5044105;28;20024;-80
2023/08/05 08:24:57;;;;;;;6.45;4.10;;;;;;;22.11;58.59;101254.91;5037549;28;20028;-80
2023/08/05 08:27:23;;;;;;;7.40;4.63;;;;;;;21.93;59.06;101245.63;5034756;28;20031;-80
2023/08/05 08:29:48;;;;;;;5.97;4.38;;;;;;;21.88;59.05;101232.53;5038978;28;20492;-80
2023/08/05 08:32:13;;;;;;;4.95;3.58;;;;;;;21.59;58.25;101237.56;5038691;28;20036;-80
2023/08/05 08:34:38;;;;;;;3.78;3.20;;;;;;;21.60;59.90;101232.09;5037475;28;20032;-80
2023/08/05 08:37:04;;;;;;;3.75;3.17;;;;;;;21.53;58.07;101235.38;5027562;28;20037;-80
2023/08/05 08:39:29;;;;;;;4.20;3.00;;;;;;;21.94;57.85;101228.50;5040076;28;20029;-81
2023/08/05 08:41:55;;;;;;;4.32;3.00;;;;;;;22.32;55.39;101228.03;5033697;28;20033;-81
2023/08/05 08:44:21;;;;;;;5.28;2.80;;;;;;;22.22;56.54;101229.78;5036472;28;20048;-80
2023/08/05 08:46:48;;;;;;;3.92;2.70;;;;;;;22.13;55.44;101220.63;5034188;28;20439;-80
2023/08/05 08:49:16;;;;;;;5.15;2.78;;;;;;;21.94;55.86;101215.03;5040853;28;20027;-80
2023/08/05 08:51:45;;;;;;;5.95;2.90;;;;;;;22.54;56.50;101200.16;5036958;28;20025;-82
2023/08/05 08:54:13;;;;;;;4.50;2.67;;;;;;;23.19;51.73;101196.34;5032176;28;20140;-81
2023/08/05 08:56:39;;;;;;;3.00;2.70;;;;;;;24.15;55.22;101205.72;5032871;28;20400;-81
2023/08/05 08:59:04;;;;;;;3.55;2.50;;;;;;;25.09;48.16;101200.59;5038158;28;20025;-81
2023/08/05 09:01:30;;;;;;;2.95;2.30;;;;;;;24.97;46.63;101189.06;5033526;28;20114;-81
2023/08/05 09:03:56;;;;;;;4.18;2.13;;;;;;;24.61;49.52;101180.72;5039397;28;20035;-81
2023/08/05 09:06:25;;;;;;;1.88;1.67;;;;;;;24.32;51.21;101186.13;5043546;28;20036;-81
2023/08/05 09:08:51;;;;;;;2.75;2.00;;;;;;;23.86;50.52;101184.09;5037835;28;20033;-81
2023/08/05 09:11:16;;;;;;;2.35;2.15;;;;;;;23.37;52.61;101185.78;5043415;28;20029;-80
2023/08/05 09:13:42;;;;;;;2.25;1.77;;;;;;;22.92;54.56;101183.41;5039663;28;20409;-80
2023/08/05 09:16:14;;;;;;;1.92;1.83;;;;;;;22.68;53.87;101170.19;5034002;28;20529;-81
2023/08/05 09:18:52;;;;;;;3.05;2.35;;;;;;;22.55;54.74;101159.59;5031850;28;20025;-81
2023/08/05 09:21:22;;;;;;;3.30;2.30;;;;;;;22.34;55.80;101153.34;5034795;28;20013;-80
2023/08/05 09:23:47;;;;;;;2.95;2.13;;;;;;;22.31;55.87;101156.28;5038220;28;20075;-80
2023/08/05 09:26:13;;;;;;;3.00;2.20;;;;;;;22.44;55.59;101148.03;5033060;28;20463;-80
2023/08/05 09:28:39;;;;;;;3.72;3.05;;;;;;;22.57;54.92;101143.28;5037502;28;20024;-80
2023/08/05 09:31:15;;;;;;;4.93;2.30;;;;;;;22.71;54.50;101142.09;5038512;28;20480;-81
2023/08/05 09:33:41;;;;;;;2.65;2.40;;;;;;;22.65;55.54;101133.56;5036531;28;20635;-80
2023/08/05 09:36:12;;;;;;;2.63;2.20;;;;;;;22.58;55.21;101127.00;5033040;28;20087;-80
2023/08/05 09:38:39;;;;;;;2.22;2.03;;;;;;;23.13;54.40;101119.50;5037672;28;20040;-82
2023/08/05 09:41:06;;;;;;;2.53;2.00;;;;;;;23.89;53.21;101121.69;5041681;28;20055;-82
2023/08/05 09:43:34;;;;;;;3.55;2.10;;;;;;;24.14;50.30;101117.56;5048467;28;20110;-80
2023/08/05 09:46:02;;;;;;;3.72;2.30;;;;;;;23.90;51.94;101115.31;5042146;28;20491;-80
2023/08/05 09:48:36;;;;;;;4.20;2.35;;;;;;;23.53;53.43;101117.78;5038207;28;20017;-80
2023/08/05 09:51:03;;;;;;;5.32;2.83;;;;;;;23.28;54.85;101111.91;5044954;28;20108;-80
2023/08/05 09:53:33;;;;;;;5.38;2.80;;;;;;;22.87;53.18;101105.59;5043172;28;20029;-81
2023/08/05 09:55:59;;;;;;;7.55;2.60;;;;;;;22.66;54.72;101105.63;5040904;28;20049;-81
2023/08/05 09:58:25;;;;;;;3.60;2.50;;;;;;;22.55;56.03;101099.44;5031441;28;20021;-81
2023/08/05 10:00:51;;;;;;;4.00;2.65;;;;;;;22.34;55.43;101100.31;5031002;28;20026;-81
2023/08/05 10:03:18;;;;;;;3.05;2.78;;;;;;;22.02;55.41;101088.72;5038457;28;20037;-81
2023/08/05 10:05:44;;;;;;;3.10;2.80;;;;;;;21.80;56.26;101098.56;5037233;28;20029;-81
2023/08/05 10:08:13;;;;;;;4.65;3.22;;;;;;;21.67;57.18;101095.19;5050012;28;20436;-81
2023/08/05 10:10:40;;;;;;;4.00;2.90;;;;;;;21.58;59.11;101088.72;5039207;28;20138;-81
2023/08/05 10:13:09;;;;;;;3.95;2.85;;;;;;;21.69;57.29;101082.47;5052359;28;20035;-80
2023/08/05 10:15:41;;;;;;;4.53;3.30;;;;;;;21.70;58.07;101086.03;5037080;28;20637;-81
2023/08/05 10:18:08;;;;;;;4.47;3.23;;;;;;;21.61;57.91;101077.72;5042842;28;20401;-81
2023/08/05 10:20:35;;;;;;;4.65;2.95;;;;;;;21.58;57.11;101074.41;5053175;28;20271;-81
2023/08/05 10:23:09;;;;;;;4.72;3.35;;;;;;;21.61;58.12;101075.03;5040752;28;20385;-80
2023/08/05 10:25:42;;;;;;;3.40;3.10;;;;;;;21.86;57.11;101063.06;5040181;28;20056;-80
2023/08/05 10:28:09;;;;;;;3.95;3.05;;;;;;;21.86;56.71;101054.97;5045646;28;20047;-81
2023/08/05 10:30:42;;;;;;;3.80;3.40;;;;;;;21.74;57.50;101056.03;5046435;28;20388;-81
2023/08/05 10:33:07;;;;;;;5.15;3.67;;;;;;;21.69;57.90;101052.88;5031675;28;20029;-81
2023/08/05 10:35:40;;;;;;;4.05;3.38;;;;;;;21.59;58.52;101068.06;5042488;28;20040;-81
2023/08/05 10:38:22;;;;;;;4.10;3.30;;;;;;;21.59;57.23;101058.16;5044998;28;20026;-81
2023/08/05 10:40:51;;;;;;;4.85;3.80;;;;;;;21.31;59.68;101058.72;5044424;28;20153;-80
2023/08/05 10:43:38;;;;;;;5.20;4.63;;;;;;;21.26;59.22;101064.44;5040697;28;20025;-81
2023/08/05 10:46:06;;;;;;;5.70;4.90;;;;;;;21.18;59.76;101066.91;5048028;28;20100;-80
2023/08/05 10:48:47;;;;;;;6.20;4.65;;;;;;;21.15;60.82;101072.53;5045885;28;20025;-81
2023/08/05 10:51:20;;;;;;;9.00;5.03;;;;;;;21.34;59.00;101061.16;5046190;28;20539;-81
2023/08/05 10:53:51;;;;;;;8.32;4.03;;;;;;;21.37;57.33;101064.47;5035500;28;20047;-81
2023/08/05 10:56:17;;;;;;;6.15;4.30;;;;;;;21.35;58.80;101066.41;5039397;28;20044;-81
2023/08/05 10:58:47;;;;;;;5.43;4.78;;;;;;;21.76;58.48;101054.06;5040858;28;20021;-81
2023/08/05 11:01:13;;;;;;;5.70;5.00;;;;;;;21.98;57.45;101057.63;5039900;28;20112;-81
2023/08/05 11:03:44;;;;;;;7.53;4.32;;;;;;;22.03;54.91;101044.63;5037220;28;20135;-81
2023/08/05 11:06:12;;;;;;;6.50;3.80;;;;;;;22.15;54.77;101038.25;5033177;28;20025;-81
2023/08/05 11:08:38;;;;;;;5.00;3.97;;;;;;;22.61;53.76;101031.53;5036151;28;20040;-81
2023/08/05 11:11:06;;;;;;;5.75;3.90;;;;;;;23.14;52.17;101034.91;5034040;28;20379;-80
2023/08/05 11:13:35;;;;;;;4.65;3.38;;;;;;;22.96;51.71;101033.84;5048160;28;20021;-80
2023/08/05 11:16:06;;;;;;;4.07;3.42;;;;;;;22.83;52.49;101041.28;5039686;28;20435;-80
2023/08/05 11:18:31;;;;;;;4.68;3.33;;;;;;;22.52;53.23;101026.94;5040794;28;20388;-81